sensor_id;sensor_type;location;lat;lon;timestamp;P1;durP1;ratioP1;P2;durP2;ratioP2
21394;SDS011;10858;42.714;23.180;2022-11-21T00:00:05;2.90;;;2.65;;
21394;SDS011;10858;42.714;23.180;2022-11-21T00:02:32;4.15;;;2.75;;
21394;SDS011;10858;42.714;23.180;2022-11-21T00:04:58;4.85;;;4.13;;
21394;SDS011;10858;42.714;23.180;2022-11-21T00:07:24;2.47;;;2.28;;
21394;SDS011;10858;42.714;23.180;2022-11-21T00:09:50;4.38;;;3.28;;
21394;SDS011;10858;42.714;23.180;2022-11-21T00:12:16;14.30;;;3.78;;
21394;SDS011;10858;42.714;23.180;2022-11-21T00:14:45;3.92;;;2.88;;
21394;SDS011;10858;42.714;23.180;2022-11-21T00:17:11;3.60;;;2.40;;
21394;SDS011;10858;42.714;23.180;2022-11-21T00:19:37;3.53;;;2.78;;
21394;SDS011;10858;42.714;23.180;2022-11-21T00:22:10;3.78;;;2.70;;
21394;SDS011;10858;42.714;23.180;2022-11-21T00:24:36;4.47;;;2.22;;
21394;SDS011;10858;42.714;23.180;2022-11-21T00:27:02;3.47;;;3.08;;
21394;SDS011;10858;42.714;23.180;2022-11-21T00:29:28;4.72;;;2.95;;
21394;SDS011;10858;42.714;23.180;2022-11-21T00:31:54;2.20;;;2.10;;
21394;SDS011;10858;42.714;23.180;2022-11-21T00:34:20;5.70;;;4.57;;
21394;SDS011;10858;42.714;23.180;2022-11-21T00:36:47;2.03;;;1.92;;
21394;SDS011;10858;42.714;23.180;2022-11-21T00:39:13;2.58;;;1.42;;
21394;SDS011;10858;42.714;23.180;2022-11-21T00:41:39;2.17;;;1.73;;
21394;SDS011;10858;42.714;23.180;2022-11-21T00:44:06;7.22;;;2.40;;
21394;SDS011;10858;42.714;23.180;2022-11-21T00:46:32;2.03;;;1.92;;
21394;SDS011;10858;42.714;23.180;2022-11-21T00:48:58;3.92;;;2.28;;
21394;SDS011;10858;42.714;23.180;2022-11-21T00:51:24;2.08;;;1.98;;
21394;SDS011;10858;42.714;23.180;2022-11-21T00:53:50;1.65;;;1.35;;
21394;SDS011;10858;42.714;23.180;2022-11-21T00:56:16;5.15;;;1.85;;
21394;SDS011;10858;42.714;23.180;2022-11-21T00:58:42;4.72;;;2.45;;
21394;SDS011;10858;42.714;23.180;2022-11-21T01:01:10;2.92;;;2.72;;
21394;SDS011;10858;42.714;23.180;2022-11-21T01:03:37;1.65;;;1.55;;
21394;SDS011;10858;42.714;23.180;2022-11-21T01:06:13;0.88;;;0.88;;
21394;SDS011;10858;42.714;23.180;2022-11-21T01:08:41;1.45;;;1.35;;
21394;SDS011;10858;42.714;23.180;2022-11-21T01:11:09;2.15;;;1.83;;
21394;SDS011;10858;42.714;23.180;2022-11-21T01:13:40;2.08;;;1.92;;
21394;SDS011;10858;42.714;23.180;2022-11-21T01:16:08;0.80;;;0.70;;
21394;SDS011;10858;42.714;23.180;2022-11-21T01:18:39;7.70;;;1.95;;
21394;SDS011;10858;42.714;23.180;2022-11-21T01:21:06;2.47;;;1.67;;
21394;SDS011;10858;42.714;23.180;2022-11-21T01:23:40;1.63;;;1.52;;
21394;SDS011;10858;42.714;23.180;2022-11-21T01:26:08;1.30;;;1.25;;
21394;SDS011;10858;42.714;23.180;2022-11-21T01:28:36;1.63;;;1.52;;
21394;SDS011;10858;42.714;23.180;2022-11-21T01:31:04;2.72;;;2.15;;
21394;SDS011;10858;42.714;23.180;2022-11-21T01:33:31;1.88;;;1.77;;
21394;SDS011;10858;42.714;23.180;2022-11-21T01:36:12;1.48;;;1.25;;
21394;SDS011;10858;42.714;23.180;2022-11-21T01:38:43;3.25;;;1.73;;
21394;SDS011;10858;42.714;23.180;2022-11-21T01:41:12;2.38;;;1.75;;
21394;SDS011;10858;42.714;23.180;2022-11-21T01:43:40;0.68;;;0.68;;
21394;SDS011;10858;42.714;23.180;2022-11-21T01:53:43;0.30;;;0.30;;
21394;SDS011;10858;42.714;23.180;2022-11-21T01:56:13;0.30;;;0.30;;
21394;SDS011;10858;42.714;23.180;2022-11-21T01:58:40;0.20;;;0.20;;
21394;SDS011;10858;42.714;23.180;2022-11-21T02:01:08;0.35;;;0.35;;
21394;SDS011;10858;42.714;23.180;2022-11-21T02:03:36;0.20;;;0.20;;
21394;SDS011;10858;42.714;23.180;2022-11-21T02:06:04;0.20;;;0.20;;
21394;SDS011;10858;42.714;23.180;2022-11-21T02:08:32;0.20;;;0.20;;
21394;SDS011;10858;42.714;23.180;2022-11-21T02:11:11;0.65;;;0.65;;
21394;SDS011;10858;42.714;23.180;2022-11-21T02:13:51;0.52;;;0.52;;
21394;SDS011;10858;42.714;23.180;2022-11-21T02:16:17;0.20;;;0.20;;
21394;SDS011;10858;42.714;23.180;2022-11-21T02:18:43;0.20;;;0.20;;
21394;SDS011;10858;42.714;23.180;2022-11-21T02:21:16;0.40;;;0.40;;
21394;SDS011;10858;42.714;23.180;2022-11-21T02:23:56;0.25;;;0.25;;
21394;SDS011;10858;42.714;23.180;2022-11-21T02:26:28;0.30;;;0.30;;
21394;SDS011;10858;42.714;23.180;2022-11-21T02:28:55;14.90;;;0.88;;
21394;SDS011;10858;42.714;23.180;2022-11-21T02:31:22;0.35;;;0.35;;
21394;SDS011;10858;42.714;23.180;2022-11-21T02:33:48;0.25;;;0.25;;
21394;SDS011;10858;42.714;23.180;2022-11-21T02:39:04;0.28;;;0.28;;
21394;SDS011;10858;42.714;23.180;2022-11-21T02:47:12;0.30;;;0.30;;
21394;SDS011;10858;42.714;23.180;2022-11-21T02:49:43;0.32;;;0.32;;
21394;SDS011;10858;42.714;23.180;2022-11-21T02:52:22;0.40;;;0.40;;
21394;SDS011;10858;42.714;23.180;2022-11-21T02:54:48;5.20;;;1.38;;
21394;SDS011;10858;42.714;23.180;2022-11-21T02:57:14;0.28;;;0.28;;
21394;SDS011;10858;42.714;23.180;2022-11-21T02:59:40;0.20;;;0.20;;
21394;SDS011;10858;42.714;23.180;2022-11-21T03:02:07;7.18;;;0.75;;
21394;SDS011;10858;42.714;23.180;2022-11-21T03:04:33;0.30;;;0.30;;
21394;SDS011;10858;42.714;23.180;2022-11-21T03:06:59;0.52;;;0.52;;
21394;SDS011;10858;42.714;23.180;2022-11-21T03:09:25;0.70;;;0.70;;
21394;SDS011;10858;42.714;23.180;2022-11-21T03:11:51;1.27;;;0.52;;
21394;SDS011;10858;42.714;23.180;2022-11-21T03:14:17;0.50;;;0.50;;
21394;SDS011;10858;42.714;23.180;2022-11-21T03:16:44;0.45;;;0.45;;
21394;SDS011;10858;42.714;23.180;2022-11-21T03:19:10;0.43;;;0.43;;
21394;SDS011;10858;42.714;23.180;2022-11-21T03:21:36;0.35;;;0.35;;
21394;SDS011;10858;42.714;23.180;2022-11-21T03:24:02;0.30;;;0.30;;
21394;SDS011;10858;42.714;23.180;2022-11-21T03:26:28;0.30;;;0.30;;
21394;SDS011;10858;42.714;23.180;2022-11-21T03:28:55;0.20;;;0.20;;
21394;SDS011;10858;42.714;23.180;2022-11-21T03:31:21;32.33;;;1.42;;
21394;SDS011;10858;42.714;23.180;2022-11-21T03:33:47;1.00;;;0.85;;
21394;SDS011;10858;42.714;23.180;2022-11-21T03:36:13;0.30;;;0.30;;
21394;SDS011;10858;42.714;23.180;2022-11-21T03:38:39;0.40;;;0.40;;
21394;SDS011;10858;42.714;23.180;2022-11-21T03:41:06;1.30;;;1.00;;
21394;SDS011;10858;42.714;23.180;2022-11-21T03:43:52;1.08;;;0.85;;
21394;SDS011;10858;42.714;23.180;2022-11-21T03:46:18;0.40;;;0.40;;
21394;SDS011;10858;42.714;23.180;2022-11-21T03:48:44;0.47;;;0.47;;
21394;SDS011;10858;42.714;23.180;2022-11-21T03:51:10;0.30;;;0.30;;
21394;SDS011;10858;42.714;23.180;2022-11-21T03:53:36;0.40;;;0.40;;
21394;SDS011;10858;42.714;23.180;2022-11-21T03:56:02;0.30;;;0.30;;
21394;SDS011;10858;42.714;23.180;2022-11-21T03:58:29;0.30;;;0.30;;
21394;SDS011;10858;42.714;23.180;2022-11-21T04:00:55;0.30;;;0.30;;
21394;SDS011;10858;42.714;23.180;2022-11-21T04:03:21;0.55;;;0.55;;
21394;SDS011;10858;42.714;23.180;2022-11-21T04:05:47;14.15;;;1.55;;
21394;SDS011;10858;42.714;23.180;2022-11-21T04:08:13;7.63;;;2.05;;
21394;SDS011;10858;42.714;23.180;2022-11-21T04:10:45;0.93;;;0.93;;
21394;SDS011;10858;42.714;23.180;2022-11-21T04:13:12;0.40;;;0.40;;
21394;SDS011;10858;42.714;23.180;2022-11-21T04:15:39;1.77;;;1.30;;
21394;SDS011;10858;42.714;23.180;2022-11-21T04:18:06;1.80;;;1.65;;
21394;SDS011;10858;42.714;23.180;2022-11-21T04:20:32;0.93;;;0.93;;
21394;SDS011;10858;42.714;23.180;2022-11-21T04:22:59;0.30;;;0.30;;
21394;SDS011;10858;42.714;23.180;2022-11-21T04:25:25;0.68;;;0.68;;
21394;SDS011;10858;42.714;23.180;2022-11-21T04:27:54;0.50;;;0.45;;
21394;SDS011;10858;42.714;23.180;2022-11-21T04:30:21;0.88;;;0.88;;
21394;SDS011;10858;42.714;23.180;2022-11-21T04:32:51;0.40;;;0.40;;
21394;SDS011;10858;42.714;23.180;2022-11-21T04:35:18;0.47;;;0.47;;
21394;SDS011;10858;42.714;23.180;2022-11-21T04:37:44;1.10;;;0.63;;
21394;SDS011;10858;42.714;23.180;2022-11-21T04:40:11;8.00;;;1.58;;
21394;SDS011;10858;42.714;23.180;2022-11-21T04:42:41;17.33;;;0.82;;
21394;SDS011;10858;42.714;23.180;2022-11-21T04:45:08;2.58;;;0.47;;
21394;SDS011;10858;42.714;23.180;2022-11-21T04:47:35;0.30;;;0.30;;
21394;SDS011;10858;42.714;23.180;2022-11-21T04:50:07;1.45;;;0.52;;
21394;SDS011;10858;42.714;23.180;2022-11-21T04:52:35;0.30;;;0.30;;
21394;SDS011;10858;42.714;23.180;2022-11-21T04:55:01;0.63;;;0.55;;
21394;SDS011;10858;42.714;23.180;2022-11-21T04:57:28;0.73;;;0.73;;
21394;SDS011;10858;42.714;23.180;2022-11-21T04:59:55;0.63;;;0.63;;
21394;SDS011;10858;42.714;23.180;2022-11-21T05:02:22;0.77;;;0.77;;
21394;SDS011;10858;42.714;23.180;2022-11-21T05:04:48;1.08;;;0.60;;
21394;SDS011;10858;42.714;23.180;2022-11-21T05:07:15;1.02;;;0.93;;
21394;SDS011;10858;42.714;23.180;2022-11-21T05:09:41;0.90;;;0.40;;
21394;SDS011;10858;42.714;23.180;2022-11-21T05:12:08;10.23;;;1.38;;
21394;SDS011;10858;42.714;23.180;2022-11-21T05:14:53;0.40;;;0.40;;
21394;SDS011;10858;42.714;23.180;2022-11-21T05:17:19;0.93;;;0.70;;
21394;SDS011;10858;42.714;23.180;2022-11-21T05:19:47;7.38;;;0.80;;
21394;SDS011;10858;42.714;23.180;2022-11-21T05:22:13;0.50;;;0.50;;
21394;SDS011;10858;42.714;23.180;2022-11-21T05:24:39;10.68;;;0.88;;
21394;SDS011;10858;42.714;23.180;2022-11-21T05:27:05;2.05;;;1.20;;
21394;SDS011;10858;42.714;23.180;2022-11-21T05:29:32;2.50;;;1.08;;
21394;SDS011;10858;42.714;23.180;2022-11-21T05:31:58;0.80;;;0.80;;
21394;SDS011;10858;42.714;23.180;2022-11-21T05:34:24;0.55;;;0.55;;
21394;SDS011;10858;42.714;23.180;2022-11-21T05:36:53;1.10;;;0.55;;
21394;SDS011;10858;42.714;23.180;2022-11-21T05:39:23;0.73;;;0.73;;
21394;SDS011;10858;42.714;23.180;2022-11-21T05:41:49;0.47;;;0.47;;
21394;SDS011;10858;42.714;23.180;2022-11-21T05:44:15;9.35;;;1.20;;
21394;SDS011;10858;42.714;23.180;2022-11-21T05:46:42;6.40;;;2.65;;
21394;SDS011;10858;42.714;23.180;2022-11-21T05:49:08;0.30;;;0.30;;
21394;SDS011;10858;42.714;23.180;2022-11-21T05:51:35;0.20;;;0.20;;
21394;SDS011;10858;42.714;23.180;2022-11-21T05:54:02;0.20;;;0.20;;
21394;SDS011;10858;42.714;23.180;2022-11-21T05:56:29;0.43;;;0.43;;
21394;SDS011;10858;42.714;23.180;2022-11-21T05:58:56;0.20;;;0.20;;
21394;SDS011;10858;42.714;23.180;2022-11-21T06:01:23;0.22;;;0.22;;
21394;SDS011;10858;42.714;23.180;2022-11-21T06:04:08;0.40;;;0.40;;
21394;SDS011;10858;42.714;23.180;2022-11-21T06:06:35;0.73;;;0.70;;
21394;SDS011;10858;42.714;23.180;2022-11-21T06:09:01;0.43;;;0.43;;
21394;SDS011;10858;42.714;23.180;2022-11-21T06:11:28;0.20;;;0.20;;
21394;SDS011;10858;42.714;23.180;2022-11-21T06:13:54;0.47;;;0.47;;
21394;SDS011;10858;42.714;23.180;2022-11-21T06:16:20;0.35;;;0.35;;
21394;SDS011;10858;42.714;23.180;2022-11-21T06:18:48;0.20;;;0.20;;
21394;SDS011;10858;42.714;23.180;2022-11-21T06:21:20;0.22;;;0.22;;
21394;SDS011;10858;42.714;23.180;2022-11-21T06:23:50;0.20;;;0.20;;
21394;SDS011;10858;42.714;23.180;2022-11-21T06:26:21;0.25;;;0.25;;
21394;SDS011;10858;42.714;23.180;2022-11-21T06:28:49;0.20;;;0.20;;
21394;SDS011;10858;42.714;23.180;2022-11-21T06:31:20;0.20;;;0.20;;
21394;SDS011;10858;42.714;23.180;2022-11-21T06:33:51;0.32;;;0.32;;
21394;SDS011;10858;42.714;23.180;2022-11-21T06:36:22;0.30;;;0.30;;
21394;SDS011;10858;42.714;23.180;2022-11-21T06:38:49;0.30;;;0.30;;
21394;SDS011;10858;42.714;23.180;2022-11-21T06:41:20;0.30;;;0.30;;
21394;SDS011;10858;42.714;23.180;2022-11-21T06:43:48;0.55;;;0.55;;
21394;SDS011;10858;42.714;23.180;2022-11-21T06:46:15;0.30;;;0.30;;
21394;SDS011;10858;42.714;23.180;2022-11-21T06:48:42;0.28;;;0.28;;
21394;SDS011;10858;42.714;23.180;2022-11-21T06:51:12;0.30;;;0.30;;
21394;SDS011;10858;42.714;23.180;2022-11-21T06:53:45;0.70;;;0.70;;
21394;SDS011;10858;42.714;23.180;2022-11-21T06:56:19;0.50;;;0.50;;
21394;SDS011;10858;42.714;23.180;2022-11-21T06:58:46;0.20;;;0.20;;
21394;SDS011;10858;42.714;23.180;2022-11-21T07:01:12;0.20;;;0.20;;
21394;SDS011;10858;42.714;23.180;2022-11-21T07:03:38;0.32;;;0.32;;
21394;SDS011;10858;42.714;23.180;2022-11-21T07:06:05;0.30;;;0.30;;
21394;SDS011;10858;42.714;23.180;2022-11-21T07:08:32;0.30;;;0.30;;
21394;SDS011;10858;42.714;23.180;2022-11-21T07:11:03;0.25;;;0.25;;
21394;SDS011;10858;42.714;23.180;2022-11-21T07:13:37;0.50;;;0.50;;
21394;SDS011;10858;42.714;23.180;2022-11-21T07:16:04;0.40;;;0.40;;
21394;SDS011;10858;42.714;23.180;2022-11-21T07:18:42;0.30;;;0.30;;
21394;SDS011;10858;42.714;23.180;2022-11-21T07:21:09;1.38;;;1.10;;
21394;SDS011;10858;42.714;23.180;2022-11-21T07:23:35;0.43;;;0.43;;
21394;SDS011;10858;42.714;23.180;2022-11-21T07:26:03;0.20;;;0.20;;
21394;SDS011;10858;42.714;23.180;2022-11-21T07:28:30;0.30;;;0.30;;
21394;SDS011;10858;42.714;23.180;2022-11-21T07:30:58;0.40;;;0.40;;
21394;SDS011;10858;42.714;23.180;2022-11-21T07:33:25;0.20;;;0.20;;
21394;SDS011;10858;42.714;23.180;2022-11-21T07:35:51;0.30;;;0.30;;
21394;SDS011;10858;42.714;23.180;2022-11-21T07:38:24;0.30;;;0.30;;
21394;SDS011;10858;42.714;23.180;2022-11-21T07:40:51;0.30;;;0.30;;
21394;SDS011;10858;42.714;23.180;2022-11-21T07:43:17;0.30;;;0.30;;
21394;SDS011;10858;42.714;23.180;2022-11-21T07:45:43;0.30;;;0.30;;
21394;SDS011;10858;42.714;23.180;2022-11-21T07:48:09;0.35;;;0.35;;
21394;SDS011;10858;42.714;23.180;2022-11-21T07:50:36;1.00;;;1.00;;
21394;SDS011;10858;42.714;23.180;2022-11-21T07:53:04;0.20;;;0.20;;
21394;SDS011;10858;42.714;23.180;2022-11-21T07:55:32;0.20;;;0.20;;
21394;SDS011;10858;42.714;23.180;2022-11-21T07:58:02;0.47;;;0.47;;
21394;SDS011;10858;42.714;23.180;2022-11-21T08:00:30;0.30;;;0.30;;
21394;SDS011;10858;42.714;23.180;2022-11-21T08:03:03;0.25;;;0.25;;
21394;SDS011;10858;42.714;23.180;2022-11-21T08:05:39;0.30;;;0.30;;
21394;SDS011;10858;42.714;23.180;2022-11-21T08:08:06;0.20;;;0.20;;
21394;SDS011;10858;42.714;23.180;2022-11-21T08:10:40;0.52;;;0.52;;
21394;SDS011;10858;42.714;23.180;2022-11-21T08:13:08;0.30;;;0.30;;
21394;SDS011;10858;42.714;23.180;2022-11-21T08:15:35;0.32;;;0.32;;
21394;SDS011;10858;42.714;23.180;2022-11-21T08:18:08;0.60;;;0.60;;
21394;SDS011;10858;42.714;23.180;2022-11-21T08:20:35;0.30;;;0.30;;
21394;SDS011;10858;42.714;23.180;2022-11-21T08:23:02;0.30;;;0.30;;
21394;SDS011;10858;42.714;23.180;2022-11-21T08:25:28;0.30;;;0.30;;
21394;SDS011;10858;42.714;23.180;2022-11-21T08:27:55;0.20;;;0.20;;
21394;SDS011;10858;42.714;23.180;2022-11-21T08:30:21;0.30;;;0.30;;
21394;SDS011;10858;42.714;23.180;2022-11-21T08:32:48;0.57;;;0.57;;
21394;SDS011;10858;42.714;23.180;2022-11-21T08:35:14;0.25;;;0.25;;
21394;SDS011;10858;42.714;23.180;2022-11-21T08:37:41;0.30;;;0.30;;
21394;SDS011;10858;42.714;23.180;2022-11-21T08:40:07;0.25;;;0.25;;
21394;SDS011;10858;42.714;23.180;2022-11-21T08:42:34;0.17;;;0.17;;
21394;SDS011;10858;42.714;23.180;2022-11-21T08:45:02;0.20;;;0.20;;
21394;SDS011;10858;42.714;23.180;2022-11-21T08:47:31;0.20;;;0.20;;
21394;SDS011;10858;42.714;23.180;2022-11-21T08:49:58;0.20;;;0.20;;
21394;SDS011;10858;42.714;23.180;2022-11-21T08:52:24;0.38;;;0.38;;
21394;SDS011;10858;42.714;23.180;2022-11-21T08:54:50;0.40;;;0.40;;
21394;SDS011;10858;42.714;23.180;2022-11-21T08:57:16;0.20;;;0.20;;
21394;SDS011;10858;42.714;23.180;2022-11-21T08:59:42;0.20;;;0.20;;
21394;SDS011;10858;42.714;23.180;2022-11-21T09:02:09;0.30;;;0.30;;
21394;SDS011;10858;42.714;23.180;2022-11-21T09:04:35;0.35;;;0.35;;
21394;SDS011;10858;42.714;23.180;2022-11-21T09:07:02;0.30;;;0.30;;
21394;SDS011;10858;42.714;23.180;2022-11-21T09:09:28;0.22;;;0.22;;
21394;SDS011;10858;42.714;23.180;2022-11-21T09:11:54;0.20;;;0.20;;
21394;SDS011;10858;42.714;23.180;2022-11-21T09:14:20;0.30;;;0.30;;
21394;SDS011;10858;42.714;23.180;2022-11-21T09:17:05;0.45;;;0.45;;
21394;SDS011;10858;42.714;23.180;2022-11-21T09:19:54;0.20;;;0.20;;
21394;SDS011;10858;42.714;23.180;2022-11-21T09:22:22;0.30;;;0.30;;
21394;SDS011;10858;42.714;23.180;2022-11-21T09:24:50;0.45;;;0.45;;
21394;SDS011;10858;42.714;23.180;2022-11-21T09:27:16;0.30;;;0.30;;
21394;SDS011;10858;42.714;23.180;2022-11-21T09:29:42;0.40;;;0.40;;
21394;SDS011;10858;42.714;23.180;2022-11-21T09:32:08;0.98;;;0.93;;
21394;SDS011;10858;42.714;23.180;2022-11-21T09:34:34;0.43;;;0.43;;
21394;SDS011;10858;42.714;23.180;2022-11-21T09:37:00;0.40;;;0.40;;
21394;SDS011;10858;42.714;23.180;2022-11-21T09:39:26;0.40;;;0.40;;
21394;SDS011;10858;42.714;23.180;2022-11-21T09:50:03;0.60;;;0.52;;
21394;SDS011;10858;42.714;23.180;2022-11-21T09:57:59;0.40;;;0.40;;
21394;SDS011;10858;42.714;23.180;2022-11-21T10:00:35;0.32;;;0.32;;
21394;SDS011;10858;42.714;23.180;2022-11-21T10:03:01;0.73;;;0.73;;
21394;SDS011;10858;42.714;23.180;2022-11-21T10:05:38;0.45;;;0.45;;
21394;SDS011;10858;42.714;23.180;2022-11-21T10:11:47;0.35;;;0.35;;
21394;SDS011;10858;42.714;23.180;2022-11-21T10:14:36;0.30;;;0.30;;
21394;SDS011;10858;42.714;23.180;2022-11-21T10:19:54;0.20;;;0.20;;
21394;SDS011;10858;42.714;23.180;2022-11-21T10:23:29;0.50;;;0.50;;
21394;SDS011;10858;42.714;23.180;2022-11-21T10:25:36;0.70;;;0.70;;
21394;SDS011;10858;42.714;23.180;2022-11-21T10:31:13;0.40;;;0.40;;
21394;SDS011;10858;42.714;23.180;2022-11-21T10:33:41;0.25;;;0.25;;
21394;SDS011;10858;42.714;23.180;2022-11-21T10:36:30;0.30;;;0.30;;
21394;SDS011;10858;42.714;23.180;2022-11-21T10:38:59;1.27;;;0.85;;
21394;SDS011;10858;42.714;23.180;2022-11-21T10:41:50;0.22;;;0.22;;
21394;SDS011;10858;42.714;23.180;2022-11-21T10:47:19;0.20;;;0.20;;
21394;SDS011;10858;42.714;23.180;2022-11-21T10:49:58;0.65;;;0.65;;
21394;SDS011;10858;42.714;23.180;2022-11-21T10:52:35;0.30;;;0.30;;
21394;SDS011;10858;42.714;23.180;2022-11-21T10:55:11;1.52;;;0.95;;
21394;SDS011;10858;42.714;23.180;2022-11-21T10:57:44;0.30;;;0.30;;
21394;SDS011;10858;42.714;23.180;2022-11-21T11:02:38;0.50;;;0.50;;
21394;SDS011;10858;42.714;23.180;2022-11-21T11:07:57;0.90;;;0.55;;
21394;SDS011;10858;42.714;23.180;2022-11-21T11:10:41;0.60;;;0.60;;
21394;SDS011;10858;42.714;23.180;2022-11-21T11:13:25;0.30;;;0.30;;
21394;SDS011;10858;42.714;23.180;2022-11-21T11:18:28;0.30;;;0.30;;
21394;SDS011;10858;42.714;23.180;2022-11-21T11:21:15;0.50;;;0.50;;
21394;SDS011;10858;42.714;23.180;2022-11-21T11:23:50;0.30;;;0.30;;
21394;SDS011;10858;42.714;23.180;2022-11-21T11:26:27;0.30;;;0.30;;
21394;SDS011;10858;42.714;23.180;2022-11-21T11:29:08;0.50;;;0.50;;
21394;SDS011;10858;42.714;23.180;2022-11-21T11:31:43;0.68;;;0.57;;
21394;SDS011;10858;42.714;23.180;2022-11-21T11:34:21;0.30;;;0.30;;
21394;SDS011;10858;42.714;23.180;2022-11-21T11:36:54;0.40;;;0.40;;
21394;SDS011;10858;42.714;23.180;2022-11-21T11:39:39;0.25;;;0.25;;
21394;SDS011;10858;42.714;23.180;2022-11-21T11:48:02;0.40;;;0.40;;
21394;SDS011;10858;42.714;23.180;2022-11-21T11:50:43;0.20;;;0.20;;
21394;SDS011;10858;42.714;23.180;2022-11-21T11:53:19;0.30;;;0.30;;
21394;SDS011;10858;42.714;23.180;2022-11-21T11:55:51;0.30;;;0.30;;
21394;SDS011;10858;42.714;23.180;2022-11-21T12:01:20;0.30;;;0.30;;
21394;SDS011;10858;42.714;23.180;2022-11-21T12:06:33;0.28;;;0.28;;
21394;SDS011;10858;42.714;23.180;2022-11-21T12:09:05;0.20;;;0.20;;
21394;SDS011;10858;42.714;23.180;2022-11-21T12:15:14;0.40;;;0.40;;
21394;SDS011;10858;42.714;23.180;2022-11-21T12:34:17;0.75;;;0.75;;
21394;SDS011;10858;42.714;23.180;2022-11-21T12:36:57;0.82;;;0.82;;
21394;SDS011;10858;42.714;23.180;2022-11-21T12:42:40;0.30;;;0.30;;
21394;SDS011;10858;42.714;23.180;2022-11-21T12:45:22;0.22;;;0.22;;
21394;SDS011;10858;42.714;23.180;2022-11-21T12:51:38;0.65;;;0.60;;
21394;SDS011;10858;42.714;23.180;2022-11-21T12:57:10;0.50;;;0.50;;
21394;SDS011;10858;42.714;23.180;2022-11-21T13:02:24;0.30;;;0.30;;
21394;SDS011;10858;42.714;23.180;2022-11-21T13:05:10;0.38;;;0.38;;
21394;SDS011;10858;42.714;23.180;2022-11-21T13:07:41;0.98;;;0.98;;
21394;SDS011;10858;42.714;23.180;2022-11-21T13:10:12;0.30;;;0.30;;
21394;SDS011;10858;42.714;23.180;2022-11-21T13:13:28;0.35;;;0.35;;
21394;SDS011;10858;42.714;23.180;2022-11-21T13:15:35;1.30;;;1.20;;
21394;SDS011;10858;42.714;23.180;2022-11-21T13:18:34;0.20;;;0.20;;
21394;SDS011;10858;42.714;23.180;2022-11-21T13:21:38;0.40;;;0.40;;
21394;SDS011;10858;42.714;23.180;2022-11-21T13:24:56;0.30;;;0.30;;
21394;SDS011;10858;42.714;23.180;2022-11-21T13:27:08;0.25;;;0.25;;
21394;SDS011;10858;42.714;23.180;2022-11-21T13:43:29;0.40;;;0.40;;
21394;SDS011;10858;42.714;23.180;2022-11-21T13:45:50;0.38;;;0.38;;
21394;SDS011;10858;42.714;23.180;2022-11-21T14:07:37;0.40;;;0.40;;
21394;SDS011;10858;42.714;23.180;2022-11-21T14:13:00;1.05;;;1.05;;
21394;SDS011;10858;42.714;23.180;2022-11-21T14:18:02;0.57;;;0.57;;
21394;SDS011;10858;42.714;23.180;2022-11-21T14:23:16;1.05;;;1.05;;
21394;SDS011;10858;42.714;23.180;2022-11-21T14:25:46;0.77;;;0.77;;
21394;SDS011;10858;42.714;23.180;2022-11-21T14:28:20;0.65;;;0.65;;
21394;SDS011;10858;42.714;23.180;2022-11-21T14:30:57;0.55;;;0.55;;
21394;SDS011;10858;42.714;23.180;2022-11-21T14:33:29;0.88;;;0.88;;
21394;SDS011;10858;42.714;23.180;2022-11-21T14:38:53;0.45;;;0.45;;
21394;SDS011;10858;42.714;23.180;2022-11-21T14:48:56;0.65;;;0.63;;
21394;SDS011;10858;42.714;23.180;2022-11-21T14:51:34;1.08;;;1.05;;
21394;SDS011;10858;42.714;23.180;2022-11-21T14:54:01;0.65;;;0.65;;
21394;SDS011;10858;42.714;23.180;2022-11-21T14:56:28;1.83;;;1.33;;
21394;SDS011;10858;42.714;23.180;2022-11-21T14:58:56;1.98;;;0.77;;
21394;SDS011;10858;42.714;23.180;2022-11-21T15:01:29;1.00;;;1.00;;
21394;SDS011;10858;42.714;23.180;2022-11-21T15:03:57;0.45;;;0.45;;
21394;SDS011;10858;42.714;23.180;2022-11-21T15:06:26;0.55;;;0.55;;
21394;SDS011;10858;42.714;23.180;2022-11-21T15:08:54;0.88;;;0.88;;
21394;SDS011;10858;42.714;23.180;2022-11-21T15:11:22;0.90;;;0.90;;
21394;SDS011;10858;42.714;23.180;2022-11-21T15:13:59;1.08;;;1.08;;
21394;SDS011;10858;42.714;23.180;2022-11-21T15:16:31;1.40;;;1.38;;
21394;SDS011;10858;42.714;23.180;2022-11-21T15:18:58;4.00;;;1.33;;
21394;SDS011;10858;42.714;23.180;2022-11-21T15:21:24;1.20;;;1.15;;
21394;SDS011;10858;42.714;23.180;2022-11-21T15:23:50;2.33;;;1.65;;
21394;SDS011;10858;42.714;23.180;2022-11-21T15:26:32;0.50;;;0.50;;
21394;SDS011;10858;42.714;23.180;2022-11-21T15:28:59;0.60;;;0.60;;
21394;SDS011;10858;42.714;23.180;2022-11-21T15:31:26;5.45;;;4.53;;
21394;SDS011;10858;42.714;23.180;2022-11-21T15:33:59;1.10;;;1.10;;
21394;SDS011;10858;42.714;23.180;2022-11-21T15:36:27;1.67;;;1.58;;
21394;SDS011;10858;42.714;23.180;2022-11-21T15:46:26;2.88;;;2.65;;
21394;SDS011;10858;42.714;23.180;2022-11-21T15:48:56;1.35;;;1.35;;
21394;SDS011;10858;42.714;23.180;2022-11-21T15:54:21;2.47;;;2.30;;
21394;SDS011;10858;42.714;23.180;2022-11-21T15:56:47;1.88;;;1.67;;
21394;SDS011;10858;42.714;23.180;2022-11-21T15:59:14;2.22;;;2.13;;
21394;SDS011;10858;42.714;23.180;2022-11-21T16:01:41;2.10;;;1.92;;
21394;SDS011;10858;42.714;23.180;2022-11-21T16:04:09;1.15;;;1.15;;
21394;SDS011;10858;42.714;23.180;2022-11-21T16:06:36;0.40;;;0.40;;
21394;SDS011;10858;42.714;23.180;2022-11-21T16:09:02;0.95;;;0.95;;
21394;SDS011;10858;42.714;23.180;2022-11-21T16:11:30;1.48;;;1.38;;
21394;SDS011;10858;42.714;23.180;2022-11-21T16:14:07;1.75;;;1.65;;
21394;SDS011;10858;42.714;23.180;2022-11-21T16:16:38;0.68;;;0.68;;
21394;SDS011;10858;42.714;23.180;2022-11-21T16:19:06;0.70;;;0.70;;
21394;SDS011;10858;42.714;23.180;2022-11-21T16:21:36;1.00;;;1.00;;
21394;SDS011;10858;42.714;23.180;2022-11-21T16:24:02;0.93;;;0.93;;
21394;SDS011;10858;42.714;23.180;2022-11-21T16:26:29;0.60;;;0.60;;
21394;SDS011;10858;42.714;23.180;2022-11-21T16:28:57;1.70;;;1.60;;
21394;SDS011;10858;42.714;23.180;2022-11-21T16:31:28;1.65;;;1.55;;
21394;SDS011;10858;42.714;23.180;2022-11-21T16:33:55;1.27;;;1.27;;
21394;SDS011;10858;42.714;23.180;2022-11-21T16:36:26;1.00;;;1.00;;
21394;SDS011;10858;42.714;23.180;2022-11-21T16:38:53;1.17;;;1.15;;
21394;SDS011;10858;42.714;23.180;2022-11-21T16:41:21;1.40;;;1.35;;
21394;SDS011;10858;42.714;23.180;2022-11-21T16:43:49;1.63;;;1.08;;
21394;SDS011;10858;42.714;23.180;2022-11-21T16:46:18;2.20;;;2.00;;
21394;SDS011;10858;42.714;23.180;2022-11-21T16:48:45;1.60;;;1.00;;
21394;SDS011;10858;42.714;23.180;2022-11-21T16:51:18;2.17;;;1.20;;
21394;SDS011;10858;42.714;23.180;2022-11-21T16:53:46;2.88;;;1.88;;
21394;SDS011;10858;42.714;23.180;2022-11-21T16:56:13;0.50;;;0.50;;
21394;SDS011;10858;42.714;23.180;2022-11-21T16:58:40;0.50;;;0.50;;
21394;SDS011;10858;42.714;23.180;2022-11-21T17:01:11;1.23;;;1.10;;
21394;SDS011;10858;42.714;23.180;2022-11-21T17:03:42;0.43;;;0.38;;
21394;SDS011;10858;42.714;23.180;2022-11-21T17:06:10;1.33;;;1.20;;
21394;SDS011;10858;42.714;23.180;2022-11-21T17:08:37;0.82;;;0.82;;
21394;SDS011;10858;42.714;23.180;2022-11-21T17:14:03;1.77;;;1.67;;
21394;SDS011;10858;42.714;23.180;2022-11-21T17:16:30;1.52;;;1.38;;
21394;SDS011;10858;42.714;23.180;2022-11-21T17:18:58;0.52;;;0.52;;
21394;SDS011;10858;42.714;23.180;2022-11-21T17:21:26;0.68;;;0.68;;
21394;SDS011;10858;42.714;23.180;2022-11-21T17:23:53;0.40;;;0.40;;
21394;SDS011;10858;42.714;23.180;2022-11-21T17:26:21;0.80;;;0.80;;